Time;durP1;ratioP1;P1;durP2;ratioP2;P2;SDS_P1;SDS_P2;PMS_P1;PMS_P2;Temp;Humidity;BMP_temperature;BMP_pressure;BME280_temperature;BME280_humidity;BME280_pressure;Samples;Min_cycle;Max_cycle;Signal;HPM_P1;HPM_P2
2023/07/19 00:01:54;;;;;;;8.30;6.15;;;;;;;28.70;40.88;99266.84;5032058;28;20086;-78
2023/07/19 00:04:19;;;;;;;5.97;4.70;;;;;;;28.84;40.39;99264.75;5032136;28;20455;-78
2023/07/19 00:06:44;;;;;;;9.27;5.07;;;;;;;28.85;40.39;99260.63;5032542;28;20026;-78
2023/07/19 00:09:10;;;;;;;7.25;5.05;;;;;;;28.98;40.84;99257.69;5031721;28;20167;-78
2023/07/19 00:11:35;;;;;;;6.07;4.50;;;;;;;29.01;40.37;99256.75;5031470;28;20508;-78
2023/07/19 00:14:05;;;;;;;6.80;4.55;;;;;;;28.89;40.23;99261.31;5031090;28;20022;-78
2023/07/19 00:16:31;;;;;;;8.57;4.50;;;;;;;28.84;40.05;99254.06;5032769;28;20106;-78
2023/07/19 00:18:56;;;;;;;9.50;5.20;;;;;;;28.92;40.14;99254.59;5031605;28;20520;-78
2023/07/19 00:21:22;;;;;;;10.20;4.82;;;;;;;29.03;39.55;99247.66;5031502;28;20029;-78
2023/07/19 00:23:47;;;;;;;6.60;4.32;;;;;;;28.91;39.87;99252.22;5032213;28;20431;-78
2023/07/19 00:26:13;;;;;;;5.40;4.18;;;;;;;29.08;39.50;99255.66;5032795;28;20044;-78
2023/07/19 00:28:39;;;;;;;12.05;4.45;;;;;;;29.20;39.41;99251.13;5032606;28;20099;-78
2023/07/19 00:31:04;;;;;;;7.45;4.68;;;;;;;29.24;39.18;99261.25;5032217;28;20033;-78
2023/07/19 00:33:31;;;;;;;6.53;4.72;;;;;;;29.20;39.01;99251.94;5032489;28;20029;-78
2023/07/19 00:35:56;;;;;;;9.27;5.18;;;;;;;29.25;38.86;99247.63;5032399;28;20021;-78
2023/07/19 00:38:22;;;;;;;7.25;4.95;;;;;;;29.14;38.99;99243.09;5031635;28;20039;-78
2023/07/19 00:40:48;;;;;;;10.80;5.15;;;;;;;28.51;40.60;99239.22;5030936;28;20022;-78
2023/07/19 00:43:14;;;;;;;9.00;4.93;;;;;;;28.57;40.54;99237.34;5030990;28;20565;-78
2023/07/19 00:45:46;;;;;;;7.82;4.60;;;;;;;28.45;40.68;99256.25;5030979;28;20073;-78
2023/07/19 00:48:11;;;;;;;8.77;4.63;;;;;;;28.45;41.00;99248.41;5032424;28;20057;-78
2023/07/19 00:50:37;;;;;;;5.90;4.78;;;;;;;28.21;41.50;99252.94;5031616;28;20174;-78
2023/07/19 00:53:03;;;;;;;5.50;4.55;;;;;;;27.93;41.92;99255.50;5031938;28;20036;-78
2023/07/19 00:55:29;;;;;;;6.47;4.65;;;;;;;27.68;42.36;99246.41;5031579;28;20026;-78
2023/07/19 00:57:55;;;;;;;7.05;5.13;;;;;;;27.44;43.14;99248.78;5032003;28;20100;-78
2023/07/19 01:00:22;;;;;;;5.97;4.80;;;;;;;27.37;43.12;99243.25;5030512;28;20476;-78
2023/07/19 01:02:48;;;;;;;6.63;4.60;;;;;;;27.04;44.04;99233.53;5030584;28;20021;-78
2023/07/19 01:05:14;;;;;;;6.25;5.45;;;;;;;26.96;44.22;99232.13;5031800;28;20151;-78
2023/07/19 01:07:39;;;;;;;8.32;6.07;;;;;;;26.82;44.54;99241.91;5030477;28;20454;-78
2023/07/19 01:10:06;;;;;;;7.93;5.35;;;;;;;26.61;45.56;99240.47;5032106;28;20120;-78
2023/07/19 01:12:31;;;;;;;7.38;5.68;;;;;;;26.57;45.69;99239.75;5031160;28;20029;-78
2023/07/19 01:14:57;;;;;;;9.50;5.70;;;;;;;26.42;46.04;99230.72;5030414;28;20022;-78
2023/07/19 01:17:22;;;;;;;10.00;4.93;;;;;;;26.31;46.60;99231.81;5031579;28;20017;-78
2023/07/19 01:19:47;;;;;;;9.90;6.00;;;;;;;26.03;46.95;99230.44;5030652;28;20112;-78
2023/07/19 01:22:13;;;;;;;7.93;5.63;;;;;;;25.90;47.63;99233.25;5031845;28;20404;-78
2023/07/19 01:24:40;;;;;;;6.45;4.93;;;;;;;25.87;47.88;99225.53;5030448;28;20021;-78
2023/07/19 01:27:06;;;;;;;7.00;5.18;;;;;;;25.84;47.95;99226.41;5030986;28;20179;-78
2023/07/19 01:29:31;;;;;;;9.07;5.13;;;;;;;25.77;48.24;99224.53;5032031;28;20488;-78
2023/07/19 01:31:57;;;;;;;11.15;5.57;;;;;;;25.71;48.72;99226.34;5030308;28;20116;-78
2023/07/19 01:34:23;;;;;;;8.65;5.68;;;;;;;25.75;48.62;99224.19;5031776;28;20032;-77
2023/07/19 01:36:48;;;;;;;8.45;5.65;;;;;;;25.67;48.56;99222.72;5030178;28;20496;-78
2023/07/19 01:39:13;;;;;;;7.30;5.32;;;;;;;25.55;49.08;99227.09;5031679;28;20022;-78
2023/07/19 01:41:39;;;;;;;12.15;7.97;;;;;;;25.72;48.80;99233.66;5030303;28;20021;-78
2023/07/19 01:44:04;;;;;;;13.73;11.25;;;;;;;25.72;48.92;99225.09;5031454;28;20116;-78
2023/07/19 01:46:30;;;;;;;9.73;6.03;;;;;;;25.68;49.16;99230.06;5031822;28;20049;-78
2023/07/19 01:48:55;;;;;;;10.65;6.32;;;;;;;25.64;49.21;99239.56;5031547;28;20048;-77
2023/07/19 01:51:21;;;;;;;9.43;6.28;;;;;;;25.74;48.79;99225.44;5031843;28;20025;-77
2023/07/19 01:53:46;;;;;;;10.73;5.35;;;;;;;25.51;49.41;99218.59;5032724;28;20030;-77
2023/07/19 01:56:12;;;;;;;7.40;5.38;;;;;;;25.54;49.46;99217.69;5030434;28;20136;-77
2023/07/19 01:58:37;;;;;;;13.07;6.32;;;;;;;25.77;49.24;99236.00;5031467;28;20459;-78
2023/07/19 02:01:03;;;;;;;9.40;5.80;;;;;;;26.05;48.25;99222.22;5032724;28;20408;-78
2023/07/19 02:03:28;;;;;;;7.22;5.68;;;;;;;26.25;47.44;99230.75;5034696;28;20085;-78
2023/07/19 02:05:58;;;;;;;9.95;5.75;;;;;;;26.56;46.70;99226.69;5033900;28;20136;-78
2023/07/19 02:08:24;;;;;;;8.57;5.10;;;;;;;26.78;46.26;99233.41;5034047;28;20500;-78
2023/07/19 02:10:49;;;;;;;6.82;5.55;;;;;;;26.84;46.01;99230.00;5035237;28;20030;-78
2023/07/19 02:13:15;;;;;;;15.40;6.22;;;;;;;26.88;45.83;99243.00;5033858;28;20459;-78
2023/07/19 02:15:40;;;;;;;7.88;5.53;;;;;;;26.88;45.83;99240.16;5035001;28;20431;-78
2023/07/19 02:18:06;;;;;;;13.30;5.97;;;;;;;26.88;46.12;99239.31;5034236;28;20025;-78
2023/07/19 02:20:31;;;;;;;11.20;5.60;;;;;;;26.90;46.36;99234.75;5035053;28;20029;-78
2023/07/19 02:22:56;;;;;;;7.70;5.53;;;;;;;26.87;46.33;99232.81;5034948;28;20033;-78
2023/07/19 02:25:22;;;;;;;10.70;5.50;;;;;;;26.92;45.97;99237.19;5033544;28;20053;-78
2023/07/19 02:27:47;;;;;;;7.47;5.20;;;;;;;26.99;45.48;99236.16;5034713;28;20025;-78
2023/07/19 02:30:13;;;;;;;10.77;5.68;;;;;;;26.42;47.27;99240.13;5033567;28;20017;-78
2023/07/19 02:32:38;;;;;;;12.88;6.18;;;;;;;26.10;48.25;99244.59;5034534;28;20017;-78
2023/07/19 02:35:04;;;;;;;11.95;5.53;;;;;;;26.23;47.94;99238.97;5034129;28;20033;-77
2023/07/19 02:37:30;;;;;;;10.70;5.38;;;;;;;26.10;48.23;99233.16;5034562;28;20025;-78
2023/07/19 02:39:55;;;;;;;14.10;6.00;;;;;;;26.35;47.53;99228.84;5034815;28;20026;-78
2023/07/19 02:42:21;;;;;;;9.77;6.25;;;;;;;26.32;47.50;99232.63;5033040;28;20029;-77
2023/07/19 02:44:46;;;;;;;28.80;7.47;;;;;;;26.12;48.35;99227.78;5034540;28;20499;-78
2023/07/19 02:47:12;;;;;;;14.07;5.72;;;;;;;26.07;48.39;99239.78;5033047;28;20515;-78
2023/07/19 02:49:42;;;;;;;21.17;6.93;;;;;;;25.77;49.32;99233.94;5034618;28;20411;-78
2023/07/19 02:52:08;;;;;;;10.95;5.68;;;;;;;25.67;49.68;99231.31;5033921;28;20025;-77
2023/07/19 02:54:35;;;;;;;11.05;6.22;;;;;;;25.57;49.91;99227.47;5033138;28;20462;-77
2023/07/19 02:57:01;;;;;;;12.73;6.40;;;;;;;25.60;49.80;99232.28;5034025;28;20056;-78
2023/07/19 02:59:26;;;;;;;10.85;5.63;;;;;;;25.21;50.96;99217.59;5034245;28;20048;-77
2023/07/19 03:01:51;;;;;;;12.70;6.43;;;;;;;25.13;51.51;99227.59;5034360;28;20025;-78
2023/07/19 03:04:17;;;;;;;11.18;5.90;;;;;;;25.08;51.45;99221.13;5036309;28;20021;-78
2023/07/19 03:06:42;;;;;;;9.93;5.20;;;;;;;25.18;51.01;99216.44;5032027;28;20021;-77
2023/07/19 03:09:10;;;;;;;14.45;6.63;;;;;;;25.23;51.00;99213.03;5033638;28;20041;-76
2023/07/19 03:11:36;;;;;;;11.00;5.40;;;;;;;25.38;50.54;99224.97;5033353;28;20025;-77
2023/07/19 03:14:02;;;;;;;11.30;5.28;;;;;;;25.66;49.97;99233.41;5032687;28;20029;-77
2023/07/19 03:16:27;;;;;;;13.48;7.07;;;;;;;25.85;49.46;99230.91;5035879;28;20017;-77
2023/07/19 03:18:53;;;;;;;12.60;5.85;;;;;;;26.00;49.08;99237.09;5039667;28;20416;-76
2023/07/19 03:21:20;;;;;;;8.32;5.38;;;;;;;26.24;48.44;99239.78;5036630;28;20083;-77
2023/07/19 03:23:45;;;;;;;11.40;6.28;;;;;;;26.31;48.27;99239.63;5036584;28;20475;-76
2023/07/19 03:26:11;;;;;;;9.93;6.53;;;;;;;26.40;48.28;99241.84;5035876;28;20025;-78
2023/07/19 03:28:36;;;;;;;9.20;5.65;;;;;;;26.52;48.01;99237.41;5039307;28;20091;-77
2023/07/19 03:31:02;;;;;;;16.80;7.88;;;;;;;26.65;47.77;99234.63;5039495;28;20029;-78
2023/07/19 03:33:27;;;;;;;33.45;18.85;;;;;;;26.69;47.62;99233.28;5051336;28;20017;-78
2023/07/19 03:35:53;;;;;;;154.20;74.80;;;;;;;26.65;47.43;99234.63;5053513;28;20103;-78
2023/07/19 03:38:19;;;;;;;216.95;92.88;;;;;;;26.63;47.22;99235.88;5053066;28;20027;-78
2023/07/19 03:40:45;;;;;;;101.78;46.65;;;;;;;26.58;47.62;99230.69;5037664;28;20040;-78
2023/07/19 03:43:10;;;;;;;25.95;12.68;;;;;;;26.39;47.86;99229.56;5033872;28;20021;-78
2023/07/19 03:45:36;;;;;;;18.48;6.95;;;;;;;26.32;48.28;99241.22;5031596;28;20136;-78
2023/07/19 03:48:02;;;;;;;16.02;6.25;;;;;;;25.99;49.46;99232.59;5033254;28;20025;-78
2023/07/19 03:50:27;;;;;;;8.15;5.95;;;;;;;25.93;49.60;99229.47;5033235;28;20032;-78
2023/07/19 03:52:53;;;;;;;11.10;6.10;;;;;;;26.10;49.14;99227.41;5032494;28;20028;-79
2023/07/19 03:55:18;;;;;;;14.30;8.25;;;;;;;26.06;49.28;99224.63;5033209;28;20503;-78
2023/07/19 03:57:43;;;;;;;14.10;6.53;;;;;;;26.19;49.18;99229.69;5032987;28;20018;-78
2023/07/19 04:00:10;;;;;;;8.77;5.50;;;;;;;26.12;49.21;99221.22;5031744;28;20017;-78
2023/07/19 04:02:35;;;;;;;11.07;5.95;;;;;;;26.14;49.33;99221.59;5032904;28;20030;-78
2023/07/19 04:05:01;;;;;;;10.75;5.28;;;;;;;25.96;49.48;99211.38;5033167;28;20044;-78
2023/07/19 04:07:26;;;;;;;15.30;7.43;;;;;;;26.15;49.60;99221.13;5031698;28;20075;-78
2023/07/19 04:09:52;;;;;;;21.65;8.60;;;;;;;26.37;48.46;99205.47;5043563;28;20021;-78
2023/07/19 04:12:18;;;;;;;21.23;7.88;;;;;;;26.58;47.93;99206.97;5051447;28;20017;-78
2023/07/19 04:14:43;;;;;;;25.73;7.85;;;;;;;26.59;47.76;99206.50;5053714;28;20195;-78
2023/07/19 04:17:10;;;;;;;17.95;6.38;;;;;;;26.68;47.04;99188.66;5053714;28;20139;-78
2023/07/19 04:19:36;;;;;;;12.00;5.78;;;;;;;26.80;47.03;99200.63;5052612;28;20021;-78
2023/07/19 04:22:01;;;;;;;15.27;5.78;;;;;;;27.02;46.54;99213.09;5052440;28;20021;-78
2023/07/19 04:24:27;;;;;;;12.48;6.55;;;;;;;27.16;45.99;99206.13;5050278;28;20028;-78
2023/07/19 04:26:52;;;;;;;6.25;5.10;;;;;;;27.18;45.63;99206.47;5036915;28;20028;-78
2023/07/19 04:29:19;;;;;;;9.75;6.38;;;;;;;27.28;45.72;99204.56;5031479;28;20520;-78
2023/07/19 04:31:45;;;;;;;12.00;5.70;;;;;;;27.40;45.40;99205.03;5031690;28;20496;-78
2023/07/19 04:34:10;;;;;;;13.15;5.68;;;;;;;27.50;45.34;99211.69;5045774;28;20035;-79
2023/07/19 04:36:36;;;;;;;11.85;6.82;;;;;;;27.52;45.27;99192.75;5032429;28;20412;-78
2023/07/19 04:39:01;;;;;;;13.88;6.10;;;;;;;27.70;44.59;99208.59;5048182;28;20072;-78
2023/07/19 04:41:27;;;;;;;15.65;5.25;;;;;;;27.49;45.30;99201.47;5032377;28;20515;-78
2023/07/19 04:43:52;;;;;;;16.33;6.28;;;;;;;27.52;44.53;99201.34;5032070;28;20018;-79
2023/07/19 04:46:18;;;;;;;8.18;6.07;;;;;;;27.43;44.29;99213.50;5032359;28;20129;-79
2023/07/19 04:48:44;;;;;;;72.72;10.13;;;;;;;27.55;44.47;99209.06;5031519;28;20040;-79
2023/07/19 04:51:09;;;;;;;14.20;6.55;;;;;;;27.76;43.51;99206.78;5030914;28;20087;-78
2023/07/19 04:53:35;;;;;;;13.98;5.97;;;;;;;27.87;43.52;99220.78;5030160;28;20037;-78
2023/07/19 04:56:00;;;;;;;15.05;5.60;;;;;;;28.05;43.57;99223.06;5029993;28;20021;-78
2023/07/19 04:58:26;;;;;;;12.77;6.22;;;;;;;28.25;43.24;99219.94;5030122;28;20017;-78
2023/07/19 05:00:51;;;;;;;10.95;6.80;;;;;;;28.52;42.55;99215.72;5038352;28;20032;-78
2023/07/19 05:03:17;;;;;;;11.70;6.22;;;;;;;28.76;42.56;99212.41;5029945;28;20026;-78
2023/07/19 05:05:42;;;;;;;13.15;5.45;;;;;;;28.89;42.14;99206.63;5031199;28;20489;-78
2023/07/19 05:08:08;;;;;;;13.23;5.43;;;;;;;28.94;41.82;99217.53;5046130;28;20020;-78
2023/07/19 05:10:37;;;;;;;11.35;5.38;;;;;;;29.08;41.15;99221.13;5048520;28;20060;-78
2023/07/19 05:13:04;;;;;;;9.93;5.68;;;;;;;29.15;40.73;99215.09;5051164;28;20090;-78
2023/07/19 05:15:29;;;;;;;10.55;5.82;;;;;;;29.11;41.06;99215.25;5049639;28;20074;-78
2023/07/19 05:17:55;;;;;;;14.93;5.88;;;;;;;28.99;41.24;99221.88;5051611;28;20051;-78
2023/07/19 05:20:20;;;;;;;9.88;6.20;;;;;;;28.91;41.46;99212.72;5033112;28;20083;-78
2023/07/19 05:22:46;;;;;;;10.45;6.10;;;;;;;29.43;40.92;99221.03;5030650;28;20025;-78
2023/07/19 05:25:11;;;;;;;14.90;7.05;;;;;;;29.64;41.02;99221.47;5030351;28;20037;-78
2023/07/19 05:27:37;;;;;;;10.60;6.40;;;;;;;29.86;40.05;99204.09;5030981;28;20033;-78
2023/07/19 05:30:04;;;;;;;7.78;5.18;;;;;;;30.22;39.62;99216.25;5028412;28;20121;-79
2023/07/19 05:32:29;;;;;;;9.45;4.95;;;;;;;30.08;39.14;99218.47;5030994;28;20025;-78
2023/07/19 05:34:56;;;;;;;12.43;5.45;;;;;;;30.25;39.49;99218.97;5029554;28;20506;-78
2023/07/19 05:37:21;;;;;;;17.02;6.25;;;;;;;30.01;39.62;99204.31;5032994;28;20024;-78
2023/07/19 05:39:48;;;;;;;12.30;6.93;;;;;;;29.93;39.88;99209.56;5033202;28;20480;-78
2023/07/19 05:42:14;;;;;;;6.78;5.43;;;;;;;30.18;38.86;99221.38;5034740;28;20488;-78
2023/07/19 05:44:39;;;;;;;9.43;5.80;;;;;;;30.00;39.67;99220.00;5034725;28;20040;-78
2023/07/19 05:47:05;;;;;;;18.63;5.28;;;;;;;29.76;38.39;99226.31;5034583;28;20056;-78
2023/07/19 05:49:30;;;;;;;10.18;4.97;;;;;;;29.62;38.74;99219.06;5033027;28;20025;-78
2023/07/19 05:51:56;;;;;;;21.65;5.97;;;;;;;29.56;39.54;99223.84;5034563;28;20045;-78
2023/07/19 05:54:22;;;;;;;8.10;4.63;;;;;;;29.79;38.60;99213.06;5034598;28;20035;-78
2023/07/19 05:56:47;;;;;;;8.98;5.95;;;;;;;29.81;38.76;99210.50;5032698;28;20439;-78
2023/07/19 05:59:13;;;;;;;14.95;5.55;;;;;;;30.05;39.19;99221.50;5033230;28;20116;-78
2023/07/19 06:01:39;;;;;;;9.30;6.40;;;;;;;29.95;39.18;99215.66;5034340;28;20025;-78
2023/07/19 06:04:05;;;;;;;14.00;7.25;;;;;;;30.12;39.10;99213.34;5034510;28;20025;-78
2023/07/19 06:06:33;;;;;;;14.43;5.75;;;;;;;30.00;38.15;99208.47;5033004;28;20033;-78
2023/07/19 06:09:01;;;;;;;20.08;5.88;;;;;;;30.10;37.97;99204.38;5032994;28;20026;-78
2023/07/19 06:11:27;;;;;;;14.18;6.05;;;;;;;30.31;37.82;99215.44;5032858;28;20033;-78
2023/07/19 06:13:53;;;;;;;8.40;6.20;;;;;;;30.68;37.09;99216.31;5034215;28;20511;-78
2023/07/19 06:16:18;;;;;;;9.40;6.00;;;;;;;30.86;36.84;99197.38;5049358;28;20068;-78
2023/07/19 06:18:44;;;;;;;25.92;6.90;;;;;;;31.04;36.40;99198.66;5054258;28;20102;-78
2023/07/19 06:21:09;;;;;;;11.70;5.70;;;;;;;31.21;36.14;99199.88;5052673;28;20024;-78
2023/07/19 06:23:35;;;;;;;15.02;6.00;;;;;;;30.86;36.52;99196.59;5052707;28;20419;-78
2023/07/19 06:26:00;;;;;;;7.65;5.63;;;;;;;30.83;35.75;99192.56;5053892;28;20468;-78
2023/07/19 06:28:26;;;;;;;23.63;6.00;;;;;;;31.13;36.35;99210.16;5053341;28;20075;-77
2023/07/19 06:30:51;;;;;;;6.88;4.68;;;;;;;30.74;36.73;99195.47;5045948;28;20029;-78
2023/07/19 06:33:17;;;;;;;8.40;5.53;;;;;;;30.81;36.71;99195.94;5032784;28;20507;-74
2023/07/19 06:35:43;;;;;;;10.45;6.03;;;;;;;30.89;36.50;99199.31;5033771;28;20542;-79
2023/07/19 06:38:09;;;;;;;13.55;5.13;;;;;;;31.05;36.41;99183.72;5032486;28;20524;-79
2023/07/19 06:40:34;;;;;;;14.80;5.53;;;;;;;31.21;36.64;99193.31;5033839;28;20127;-79
2023/07/19 06:42:59;;;;;;;8.23;5.28;;;;;;;31.21;35.74;99188.31;5032407;28;20029;-80
2023/07/19 06:45:25;;;;;;;7.50;4.65;;;;;;;31.10;36.60;99193.81;5033491;28;20084;-79
2023/07/19 06:47:50;;;;;;;9.77;5.38;;;;;;;31.31;36.20;99199.88;5031959;28;20558;-79
2023/07/19 06:50:17;;;;;;;13.57;6.18;;;;;;;31.26;35.99;99180.34;5033619;28;20585;-79
2023/07/19 06:52:43;;;;;;;23.95;5.82;;;;;;;31.43;35.77;99187.31;5033486;28;20018;-79
2023/07/19 06:55:09;;;;;;;13.48;5.07;;;;;;;31.26;35.61;99171.69;5033501;28;20029;-77
2023/07/19 06:57:34;;;;;;;9.85;5.32;;;;;;;31.37;34.89;99192.97;5033404;28;20499;-77
2023/07/19 07:00:00;;;;;;;10.00;5.07;;;;;;;31.74;35.34;99197.00;5032437;28;20025;-77
2023/07/19 07:02:25;;;;;;;7.97;4.72;;;;;;;31.40;35.32;99182.53;5036863;28;20120;-77
2023/07/19 07:04:51;;;;;;;9.30;4.75;;;;;;;31.14;35.63;99188.69;5033300;28;20396;-77
2023/07/19 07:07:19;;;;;;;11.82;5.07;;;;;;;31.14;34.93;99185.78;5031183;28;20044;-77
2023/07/19 07:09:45;;;;;;;9.48;5.85;;;;;;;31.50;35.51;99189.88;5033208;28;20424;-77
2023/07/19 07:12:10;;;;;;;9.45;5.00;;;;;;;31.88;34.84;99195.50;5031831;28;20037;-77
2023/07/19 07:14:37;;;;;;;7.07;4.90;;;;;;;31.94;34.34;99184.88;5031858;28;20025;-78
2023/07/19 07:17:03;;;;;;;8.25;4.70;;;;;;;32.40;33.60;99197.47;5033605;28;20113;-78
2023/07/19 07:19:29;;;;;;;9.43;5.13;;;;;;;32.22;33.24;99176.81;5040978;28;20029;-79
2023/07/19 07:21:54;;;;;;;6.32;4.90;;;;;;;32.44;32.94;99172.00;5033064;28;20029;-78
2023/07/19 07:24:20;;;;;;;10.98;4.93;;;;;;;32.20;32.73;99170.72;5048767;28;20111;-77
2023/07/19 07:26:45;;;;;;;6.13;4.72;;;;;;;32.03;33.95;99175.34;5051543;28;20021;-77
2023/07/19 07:29:11;;;;;;;12.10;4.47;;;;;;;32.37;33.63;99170.31;5051470;28;20021;-78
2023/07/19 07:31:36;;;;;;;8.05;5.78;;;;;;;32.81;32.51;99174.59;5052611;28;20384;-78
2023/07/19 07:34:02;;;;;;;9.60;4.93;;;;;;;33.05;32.17;99160.06;5052653;28;20028;-78
2023/07/19 07:36:27;;;;;;;6.45;4.55;;;;;;;32.87;32.04;99166.81;5052452;28;20017;-79
2023/07/19 07:38:53;;;;;;;12.98;5.20;;;;;;;32.87;31.99;99160.22;5051235;28;20121;-78
2023/07/19 07:41:19;;;;;;;7.57;5.18;;;;;;;32.85;31.63;99172.31;5042371;28;20512;-78
2023/07/19 07:43:44;;;;;;;12.73;6.03;;;;;;;33.36;31.45;99172.44;5031348;28;20258;-78
2023/07/19 07:46:10;;;;;;;13.43;5.18;;;;;;;33.60;30.65;99162.81;5031136;28;20050;-78
2023/07/19 07:48:35;;;;;;;9.48;5.18;;;;;;;33.51;30.65;99174.53;5034627;28;20041;-78
2023/07/19 07:51:00;;;;;;;6.13;4.85;;;;;;;33.85;29.49;99177.94;5032575;28;20021;-78
2023/07/19 07:53:26;;;;;;;7.75;4.88;;;;;;;34.06;29.52;99173.00;5031121;28;20096;-78
2023/07/19 07:55:52;;;;;;;5.40;4.40;;;;;;;34.18;28.49;99171.06;5032512;28;20500;-78
2023/07/19 07:58:17;;;;;;;5.78;4.00;;;;;;;34.44;28.18;99168.19;5031592;28;20026;-78
2023/07/19 08:00:45;;;;;;;13.00;5.53;;;;;;;34.71;28.52;99165.38;5031026;28;20032;-78
2023/07/19 08:03:12;;;;;;;11.43;5.30;;;;;;;34.74;29.63;99170.16;5032233;28;20020;-79
2023/07/19 08:05:38;;;;;;;8.18;5.13;;;;;;;33.85;29.89;99157.66;5032204;28;20064;-79
2023/07/19 08:08:05;;;;;;;12.02;5.22;;;;;;;34.68;30.13;99164.28;5031179;28;20065;-81
2023/07/19 08:10:32;;;;;;;12.07;5.18;;;;;;;34.57;29.12;99155.44;5046069;28;20049;-78
2023/07/19 08:12:58;;;;;;;9.10;4.95;;;;;;;34.05;30.30;99156.91;5032340;28;20845;-82
2023/07/19 08:15:23;;;;;;;7.78;5.28;;;;;;;34.34;29.61;99154.38;5032711;28;20029;-83
2023/07/19 08:17:49;;;;;;;12.60;5.93;;;;;;;34.46;29.36;99153.19;5043162;28;20053;-83
2023/07/19 08:20:15;;;;;;;7.68;4.93;;;;;;;34.51;28.88;99146.69;5032362;28;20037;-83
2023/07/19 08:22:41;;;;;;;12.80;6.00;;;;;;;34.85;29.97;99147.03;5030545;28;20033;-83
2023/07/19 08:25:06;;;;;;;5.93;4.85;;;;;;;35.10;29.89;99127.22;5031854;28;20508;-83
2023/07/19 08:27:32;;;;;;;6.25;4.70;;;;;;;35.28;29.61;99131.09;5031351;28;20045;-83
2023/07/19 08:30:00;;;;;;;13.10;4.40;;;;;;;35.34;28.52;99151.47;5030305;28;20033;-84
2023/07/19 08:32:25;;;;;;;4.78;4.38;;;;;;;35.16;28.83;99138.13;5030374;28;20124;-83
2023/07/19 08:34:51;;;;;;;8.32;5.30;;;;;;;35.01;27.61;99136.13;5031712;28;20064;-83
2023/07/19 08:37:16;;;;;;;5.32;4.78;;;;;;;34.72;28.02;99138.75;5043257;28;20087;-83
2023/07/19 08:39:42;;;;;;;7.80;4.30;;;;;;;34.63;28.15;99129.38;5030249;28;20038;-83
2023/07/19 08:42:07;;;;;;;10.38;4.75;;;;;;;35.17;27.60;99131.78;5040649;28;20029;-83
2023/07/19 08:44:33;;;;;;;6.68;4.55;;;;;;;35.68;28.04;99132.19;5049982;28;20029;-84
2023/07/19 08:46:59;;;;;;;7.80;4.45;;;;;;;35.93;26.80;99120.16;5035225;28;20500;-83
2023/07/19 08:49:25;;;;;;;7.70;4.82;;;;;;;35.96;26.79;99131.56;5029085;28;20496;-82
2023/07/19 08:51:50;;;;;;;5.78;4.40;;;;;;;35.62;26.98;99119.72;5029213;28;20032;-83
2023/07/19 08:54:16;;;;;;;6.15;4.03;;;;;;;36.05;27.20;99123.94;5045564;28;20426;-83
2023/07/19 08:56:43;;;;;;;4.93;4.43;;;;;;;36.24;25.57;99104.72;5051362;28;20024;-84
2023/07/19 08:59:10;;;;;;;7.40;4.75;;;;;;;36.48;26.10;99123.84;5051123;28;20072;-84
2023/07/19 09:01:35;;;;;;;5.18;4.68;;;;;;;36.65;26.27;99103.53;5051168;28;20029;-84
2023/07/19 09:04:09;;;;;;;6.20;4.55;;;;;;;36.55;24.50;99116.75;5048364;28;20056;-83
2023/07/19 09:06:34;;;;;;;8.18;4.28;;;;;;;36.33;24.46;99100.78;5049899;28;20031;-84
2023/07/19 09:09:01;;;;;;;6.95;4.13;;;;;;;36.65;24.68;99109.34;5051000;28;20476;-84
2023/07/19 09:11:26;;;;;;;22.08;4.40;;;;;;;36.76;24.24;99108.56;5049325;28;20039;-84
2023/07/19 09:13:54;;;;;;;5.32;4.15;;;;;;;37.12;24.19;99110.22;5047135;28;20025;-83
2023/07/19 09:16:31;;;;;;;7.03;4.22;;;;;;;37.37;23.00;99096.69;5046650;28;20080;-84
2023/07/19 09:18:57;;;;;;;6.57;4.55;;;;;;;36.46;23.70;99097.38;5029714;28;20810;-84
2023/07/19 09:21:43;;;;;;;6.07;4.00;;;;;;;36.47;23.36;99101.88;5029871;28;20144;-84
2023/07/19 09:24:10;;;;;;;8.07;4.70;;;;;;;36.71;23.66;99071.50;5031221;28;20075;-80
2023/07/19 09:26:53;;;;;;;7.05;3.60;;;;;;;37.11;23.29;99082.41;5049831;28;20028;-77
2023/07/19 09:29:20;;;;;;;5.93;3.70;;;;;;;36.94;23.51;99083.94;5050884;28;20048;-79
2023/07/19 09:31:53;;;;;;;10.65;3.83;;;;;;;36.26;24.52;99077.97;5033018;28;20097;-78
2023/07/19 09:34:25;;;;;;;10.85;4.20;;;;;;;36.70;23.42;99075.75;5039032;28;20025;-82
2023/07/19 09:36:52;;;;;;;9.38;4.03;;;;;;;37.19;22.78;99071.81;5029844;28;20404;-74
2023/07/19 09:39:17;;;;;;;4.57;3.67;;;;;;;37.68;22.94;99079.44;5029868;28;20017;-75
2023/07/19 09:41:47;;;;;;;5.80;3.85;;;;;;;37.28;23.27;99070.72;5038251;28;20025;-76
2023/07/19 09:44:17;;;;;;;9.30;4.65;;;;;;;36.66;23.04;99078.09;5051167;28;20407;-79
2023/07/19 09:46:44;;;;;;;4.72;4.32;;;;;;;36.62;22.77;99065.94;5050029;28;20045;-78
2023/07/19 09:49:12;;;;;;;6.57;4.38;;;;;;;36.93;23.19;99067.03;5045841;28;20044;-79
2023/07/19 09:51:42;;;;;;;5.40;4.47;;;;;;;37.14;22.36;99061.75;5048636;28;20036;-78
2023/07/19 09:54:09;;;;;;;5.10;3.90;;;;;;;37.61;23.27;99054.53;5048683;28;20451;-81
2023/07/19 09:56:35;;;;;;;8.45;4.85;;;;;;;37.97;23.70;99051.72;5050980;28;20056;-80
2023/07/19 09:59:04;;;;;;;7.63;4.57;;;;;;;38.36;23.23;99047.03;5032075;28;20543;-83
2023/07/19 10:01:33;;;;;;;9.90;4.20;;;;;;;37.81;21.35;99044.63;5029081;28;20112;-81
2023/07/19 10:03:59;;;;;;;;;;;;;;;37.87;20.88;99044.63;5031151;28;20475;-79
2023/07/19 10:06:28;;;;;;;8.70;3.80;;;;;;;38.32;22.67;99040.69;5028900;28;20151;-88
2023/07/19 10:09:22;;;;;;;4.43;3.67;;;;;;;38.48;21.18;99036.88;5029924;28;20421;-80
2023/07/19 10:11:49;;;;;;;7.63;4.00;;;;;;;37.69;20.35;99035.13;5029327;28;20372;-81
2023/07/19 10:14:24;;;;;;;8.57;3.28;;;;;;;36.53;21.10;99032.78;5028164;28;20500;-84
2023/07/19 10:16:49;;;;;;;8.57;3.63;;;;;;;36.90;21.06;99027.28;5027907;28;20033;-83
2023/07/19 10:19:20;;;;;;;5.68;3.72;;;;;;;37.13;20.56;99030.19;5049767;28;20021;-89
2023/07/19 10:22:06;;;;;;;6.07;4.22;;;;;;;36.70;20.94;99034.97;5047155;28;20035;-84
2023/07/19 10:24:36;;;;;;;5.43;4.40;;;;;;;37.17;21.24;99033.66;5035608;28;20036;-84
2023/07/19 10:27:10;;;;;;;5.85;3.53;;;;;;;37.51;20.27;99018.97;5039893;28;20124;-83
2023/07/19 10:29:39;;;;;;;6.88;3.78;;;;;;;38.23;19.97;99020.56;5040803;28;20036;-83
2023/07/19 10:32:05;;;;;;;;;;;;;;;37.67;20.04;99031.16;5040283;28;20025;-83
2023/07/19 10:34:30;;;;;;;6.70;3.75;;;;;;;38.17;21.62;99009.72;5044879;28;20426;-83
2023/07/19 10:37:06;;;;;;;4.93;3.63;;;;;;;38.51;21.69;99019.63;5033786;28;20025;-83
2023/07/19 10:39:32;;;;;;;8.23;4.78;;;;;;;38.60;22.12;99016.34;5032519;28;20108;-83
2023/07/19 10:41:59;;;;;;;4.93;4.15;;;;;;;38.04;21.43;99021.22;5033894;28;20385;-84
2023/07/19 10:44:26;;;;;;;5.50;3.83;;;;;;;38.25;21.19;99009.94;5031057;28;20463;-83
2023/07/19 10:46:54;;;;;;;5.13;3.78;;;;;;;38.48;22.12;99010.59;5032412;28;20047;-83
2023/07/19 10:49:24;;;;;;;7.40;4.78;;;;;;;38.74;21.86;99014.41;5032299;28;20034;-84
2023/07/19 10:51:58;;;;;;;6.80;4.15;;;;;;;39.10;21.64;98998.94;5032382;28;20442;-84
2023/07/19 10:54:25;;;;;;;7.45;4.10;;;;;;;39.27;20.53;99011.25;5033610;28;20025;-84
2023/07/19 10:56:51;;;;;;;5.20;3.50;;;;;;;39.70;20.89;99000.97;5032253;28;20017;-84
2023/07/19 10:59:17;;;;;;;7.25;4.43;;;;;;;38.07;21.22;99002.63;5032186;28;20056;-84
2023/07/19 11:01:44;;;;;;;5.78;3.63;;;;;;;38.60;21.98;98990.06;5033500;28;20029;-84
2023/07/19 11:04:09;;;;;;;5.28;3.85;;;;;;;39.09;22.00;98991.50;5031756;28;20030;-84
2023/07/19 11:06:37;;;;;;;8.35;3.95;;;;;;;39.26;21.45;98994.25;5033426;28;20076;-84
2023/07/19 11:09:07;;;;;;;7.15;4.28;;;;;;;39.31;20.98;98984.66;5032021;28;20191;-84
2023/07/19 11:11:38;;;;;;;46.17;6.95;;;;;;;38.99;20.25;98980.22;5033366;28;20087;-84
2023/07/19 11:14:04;;;;;;;9.18;4.13;;;;;;;39.37;21.94;98978.75;5033304;28;20025;-83
2023/07/19 11:16:30;;;;;;;5.03;4.53;;;;;;;39.69;20.64;98975.16;5031828;28;20041;-84
2023/07/19 11:18:56;;;;;;;4.65;3.70;;;;;;;38.31;20.52;98978.56;5033292;28;20031;-84
2023/07/19 11:21:26;;;;;;;4.47;4.00;;;;;;;38.79;21.27;98960.19;5032283;28;20029;-84
2023/07/19 11:23:52;;;;;;;8.60;4.53;;;;;;;39.32;20.46;98972.38;5045526;28;20123;-84
2023/07/19 11:26:18;;;;;;;6.22;3.90;;;;;;;39.52;19.55;98957.84;5052864;28;20056;-84